Time;durP1;ratioP1;P1;durP2;ratioP2;P2;SDS_P1;SDS_P2;PMS_P1;PMS_P2;Temp;Humidity;BMP_temperature;BMP_pressure;BME280_temperature;BME280_humidity;BME280_pressure;Samples;Min_cycle;Max_cycle;Signal;HPM_P1;HPM_P2
2022/08/07 00:01:44;;;;;;;12.23;6.13;;;;;;;;;;5051443;28;20075;-60
2022/08/07 00:04:11;;;;;;;5.97;2.28;;;;;;;;;;5052424;28;20044;-60
2022/08/07 00:06:38;;;;;;;7.15;3.53;;;;;;;;;;5050793;28;20153;-60
2022/08/07 00:09:05;;;;;;;16.27;11.52;;;;;;;;;;5052610;28;20045;-60
2022/08/07 00:11:31;;;;;;;4.07;1.52;;;;;;;;;;5038884;28;20529;-60
2022/08/07 00:13:58;;;;;;;6.50;1.30;;;;;;;;;;5052334;28;20040;-62
2022/08/07 00:16:24;;;;;;;4.18;1.48;;;;;;;;;;5052032;28;20062;-60
2022/08/07 00:18:51;;;;;;;4.55;1.30;;;;;;;;;;5038925;28;20993;-61
2022/08/07 00:21:18;;;;;;;4.03;1.35;;;;;;;;;;5051066;28;20036;-61
2022/08/07 00:23:44;;;;;;;4.10;1.10;;;;;;;;;;5051569;28;20041;-62
2022/08/07 00:26:11;;;;;;;4.13;1.10;;;;;;;;;;5051246;28;20136;-59
2022/08/07 00:28:38;;;;;;;4.72;1.48;;;;;;;;;;5049643;28;20066;-60
2022/08/07 00:31:07;;;;;;;3.65;1.20;;;;;;;;;;5048407;28;20298;-60
2022/08/07 00:33:34;;;;;;;3.92;1.10;;;;;;;;;;5033239;28;20045;-60
2022/08/07 00:36:02;;;;;;;4.80;1.00;;;;;;;;;;5038567;28;20484;-60
2022/08/07 00:38:28;;;;;;;4.65;1.30;;;;;;;;;;5049100;28;20036;-60
2022/08/07 00:40:55;;;;;;;3.53;1.27;;;;;;;;;;5049450;28;20365;-60
2022/08/07 00:43:22;;;;;;;2.55;1.00;;;;;;;;;;5050956;28;20048;-60
2022/08/07 00:45:49;;;;;;;4.25;1.02;;;;;;;;;;5051047;28;20041;-60
2022/08/07 00:48:15;;;;;;;4.03;1.30;;;;;;;;;;5051654;28;20552;-60
2022/08/07 00:50:42;;;;;;;2.88;1.08;;;;;;;;;;5049178;28;20048;-59
2022/08/07 00:53:09;;;;;;;4.07;1.27;;;;;;;;;;5051169;28;20081;-59
2022/08/07 00:55:35;;;;;;;14.68;1.90;;;;;;;;;;5050506;28;20135;-59
2022/08/07 00:58:02;;;;;;;4.18;1.33;;;;;;;;;;5050690;28;20483;-60
2022/08/07 01:00:29;;;;;;;4.18;0.90;;;;;;;;;;5050095;28;20029;-59
2022/08/07 01:02:56;;;;;;;5.00;1.08;;;;;;;;;;5051902;28;20062;-59
2022/08/07 01:05:23;;;;;;;3.78;1.00;;;;;;;;;;5050913;28;20559;-58
2022/08/07 01:07:49;;;;;;;2.58;0.80;;;;;;;;;;5050900;28;20499;-58
2022/08/07 01:10:16;;;;;;;5.57;0.95;;;;;;;;;;5050620;28;20106;-59
2022/08/07 01:12:43;;;;;;;4.68;1.30;;;;;;;;;;5054185;28;20102;-58
2022/08/07 01:15:10;;;;;;;4.10;1.30;;;;;;;;;;5050368;28;20036;-58
2022/08/07 01:17:37;;;;;;;3.92;1.30;;;;;;;;;;5049872;28;20029;-58
2022/08/07 01:20:15;;;;;;;3.20;1.00;;;;;;;;;;5049869;28;20211;-58
2022/08/07 01:22:42;;;;;;;4.25;1.27;;;;;;;;;;5050384;28;20044;-58
2022/08/07 01:25:10;;;;;;;5.82;1.00;;;;;;;;;;5052285;28;20169;-58
2022/08/07 01:27:36;;;;;;;3.50;1.02;;;;;;;;;;5051253;28;20064;-59
2022/08/07 01:30:04;;;;;;;4.45;0.90;;;;;;;;;;5050829;28;20033;-59
2022/08/07 01:32:30;;;;;;;4.10;1.20;;;;;;;;;;5051210;28;20606;-59
2022/08/07 01:34:57;;;;;;;3.80;1.20;;;;;;;;;;5038306;28;20483;-58
2022/08/07 01:37:24;;;;;;;4.93;1.10;;;;;;;;;;5038064;28;20079;-59
2022/08/07 01:39:50;;;;;;;5.00;1.10;;;;;;;;;;5050523;28;20048;-58
2022/08/07 01:42:17;;;;;;;3.55;1.10;;;;;;;;;;5051716;28;20069;-60
2022/08/07 01:44:44;;;;;;;6.53;1.15;;;;;;;;;;5051170;28;20056;-59
2022/08/07 01:47:11;;;;;;;2.80;0.90;;;;;;;;;;5026029;28;20036;-60
2022/08/07 01:49:37;;;;;;;4.75;1.20;;;;;;;;;;5047235;28;20060;-59
2022/08/07 01:52:05;;;;;;;6.30;1.20;;;;;;;;;;5050491;28;20138;-59
2022/08/07 01:54:40;;;;;;;3.50;1.00;;;;;;;;;;5049458;28;20025;-59
2022/08/07 01:57:10;;;;;;;3.90;1.00;;;;;;;;;;5052293;28;20106;-60
2022/08/07 01:59:42;;;;;;;5.80;1.20;;;;;;;;;;5051623;28;20037;-59
2022/08/07 02:02:08;;;;;;;;;;;;;;;;;;5052514;28;20040;-59
2022/08/07 02:04:49;;;;;;;3.10;1.10;;;;;;;;;;5051891;28;20728;-59
2022/08/07 02:07:16;;;;;;;3.60;1.00;;;;;;;;;;5049933;28;20231;-60
2022/08/07 02:09:45;;;;;;;3.08;0.98;;;;;;;;;;5048226;28;20110;-60
2022/08/07 02:12:16;;;;;;;4.80;1.70;;;;;;;;;;5049329;28;20070;-59
2022/08/07 02:14:45;;;;;;;3.53;1.00;;;;;;;;;;5050824;28;20045;-60
2022/08/07 02:17:13;;;;;;;4.75;1.23;;;;;;;;;;5051145;28;20032;-61
2022/08/07 02:19:42;;;;;;;4.55;1.00;;;;;;;;;;5045902;28;20052;-60
2022/08/07 02:22:09;;;;;;;5.35;1.10;;;;;;;;;;5049356;28;20068;-59
2022/08/07 02:24:36;;;;;;;3.80;0.80;;;;;;;;;;5049970;28;20063;-58
2022/08/07 02:27:04;;;;;;;5.75;2.85;;;;;;;;;;5053048;28;20111;-58
2022/08/07 02:29:31;;;;;;;4.85;1.23;;;;;;;;;;5053323;28;20076;-59
2022/08/07 02:31:59;;;;;;;4.75;1.25;;;;;;;;;;5055201;28;20048;-59
2022/08/07 02:34:27;;;;;;;7.05;1.30;;;;;;;;;;5051673;28;20037;-60
2022/08/07 02:36:54;;;;;;;5.97;1.30;;;;;;;;;;5053185;28;20043;-61
2022/08/07 02:39:22;;;;;;;6.20;1.23;;;;;;;;;;5052415;28;20498;-60
2022/08/07 02:41:49;;;;;;;5.40;1.30;;;;;;;;;;5055579;28;20032;-60
2022/08/07 02:44:16;;;;;;;5.00;1.30;;;;;;;;;;5052314;28;20036;-61
2022/08/07 02:46:43;;;;;;;4.25;1.55;;;;;;;;;;5052866;28;20066;-60
2022/08/07 02:49:10;;;;;;;3.78;1.20;;;;;;;;;;5052658;28;20090;-60
2022/08/07 02:51:36;;;;;;;5.13;1.30;;;;;;;;;;5052954;28;20056;-60
2022/08/07 02:54:04;;;;;;;3.67;1.40;;;;;;;;;;5053275;28;20047;-61
2022/08/07 02:56:32;;;;;;;6.28;1.40;;;;;;;;;;5052715;28;20050;-61
2022/08/07 02:59:00;;;;;;;3.50;1.10;;;;;;;;;;5052966;28;20041;-60
2022/08/07 03:01:27;;;;;;;7.20;1.17;;;;;;;;;;5053453;28;20410;-60
2022/08/07 03:03:55;;;;;;;3.00;1.10;;;;;;;;;;5039245;28;20047;-60
2022/08/07 03:06:22;;;;;;;3.85;1.20;;;;;;;;;;5053247;28;22057;-60
2022/08/07 03:08:49;;;;;;;4.82;1.27;;;;;;;;;;5052769;28;20064;-59
2022/08/07 03:11:16;;;;;;;5.05;1.10;;;;;;;;;;5053280;28;20570;-60
2022/08/07 03:13:43;;;;;;;6.10;1.10;;;;;;;;;;5051776;28;20698;-60
2022/08/07 03:16:10;;;;;;;4.07;1.30;;;;;;;;;;5051693;28;20044;-60
2022/08/07 03:18:37;;;;;;;5.55;1.45;;;;;;;;;;5052516;28;20055;-62
2022/08/07 03:21:06;;;;;;;5.00;1.35;;;;;;;;;;5053879;28;20158;-59
2022/08/07 03:23:34;;;;;;;3.95;1.25;;;;;;;;;;5051260;28;20488;-60
2022/08/07 03:26:02;;;;;;;3.88;1.08;;;;;;;;;;5053780;28;20044;-60
2022/08/07 03:28:29;;;;;;;4.85;1.40;;;;;;;;;;5056941;28;20573;-59
2022/08/07 03:31:17;;;;;;;6.90;1.40;;;;;;;;;;5052119;28;20048;-59
2022/08/07 03:33:44;;;;;;;5.05;1.45;;;;;;;;;;5053898;28;20037;-59
2022/08/07 03:36:13;;;;;;;5.85;1.90;;;;;;;;;;5052238;28;20090;-58
2022/08/07 03:38:40;;;;;;;6.10;2.13;;;;;;;;;;5051674;28;20443;-59
2022/08/07 03:41:07;;;;;;;5.05;1.80;;;;;;;;;;5058079;28;20570;-59
2022/08/07 03:43:34;;;;;;;5.93;1.75;;;;;;;;;;5051549;28;20567;-58
2022/08/07 03:46:05;;;;;;;5.90;1.67;;;;;;;;;;5044873;28;20043;-60
2022/08/07 03:48:32;;;;;;;4.25;1.73;;;;;;;;;;5039687;28;20123;-59
2022/08/07 03:50:59;;;;;;;5.45;1.55;;;;;;;;;;5054478;28;20056;-60
2022/08/07 03:53:26;;;;;;;5.70;1.30;;;;;;;;;;5052929;28;20099;-61
2022/08/07 03:55:53;;;;;;;4.47;1.73;;;;;;;;;;5054149;28;20043;-59
2022/08/07 03:58:20;;;;;;;5.78;2.00;;;;;;;;;;5053900;28;20045;-62
2022/08/07 04:00:47;;;;;;;8.38;1.75;;;;;;;;;;5054401;28;20029;-60
2022/08/07 04:03:14;;;;;;;7.50;2.15;;;;;;;;;;5053223;28;20036;-58
2022/08/07 04:05:41;;;;;;;11.55;3.08;;;;;;;;;;5052247;28;20044;-58
2022/08/07 04:08:10;;;;;;;10.55;3.50;;;;;;;;;;5054513;28;20066;-59
2022/08/07 04:10:37;;;;;;;7.07;2.70;;;;;;;;;;5052121;28;20779;-59
2022/08/07 04:13:04;;;;;;;9.25;2.72;;;;;;;;;;5055055;28;20510;-58
2022/08/07 04:15:30;;;;;;;12.52;2.50;;;;;;;;;;5040975;28;20124;-58
2022/08/07 04:17:57;;;;;;;5.50;1.83;;;;;;;;;;5054339;28;20053;-60
2022/08/07 04:20:23;;;;;;;6.38;1.90;;;;;;;;;;5057504;28;20564;-59
2022/08/07 04:22:50;;;;;;;9.25;2.00;;;;;;;;;;5054303;28;20061;-60
2022/08/07 04:25:17;;;;;;;5.63;2.13;;;;;;;;;;5053497;28;20037;-59
2022/08/07 04:27:44;;;;;;;8.55;2.60;;;;;;;;;;5052552;28;20040;-60
2022/08/07 04:30:11;;;;;;;9.93;2.40;;;;;;;;;;5040414;28;20147;-60
2022/08/07 04:32:38;;;;;;;4.32;2.05;;;;;;;;;;5052429;28;20558;-60
2022/08/07 04:35:06;;;;;;;5.35;1.80;;;;;;;;;;5041713;28;20705;-60
2022/08/07 04:37:34;;;;;;;7.38;2.70;;;;;;;;;;5053213;28;20051;-59
2022/08/07 04:40:01;;;;;;;10.25;2.78;;;;;;;;;;5056673;28;20145;-60
2022/08/07 04:42:30;;;;;;;33.55;14.18;;;;;;;;;;5054086;28;20037;-60
2022/08/07 04:44:58;;;;;;;18.88;8.85;;;;;;;;;;5054180;28;20072;-58
2022/08/07 04:47:35;;;;;;;20.42;10.40;;;;;;;;;;5054052;28;20155;-59
2022/08/07 04:50:14;;;;;;;10.32;5.10;;;;;;;;;;5053952;28;20036;-59
2022/08/07 04:52:53;;;;;;;7.18;2.92;;;;;;;;;;5052925;28;20130;-59
2022/08/07 04:55:23;;;;;;;6.57;2.90;;;;;;;;;;5053120;28;20131;-60
2022/08/07 04:57:49;;;;;;;8.13;3.63;;;;;;;;;;5053258;28;20139;-59
2022/08/07 05:00:18;;;;;;;9.48;6.00;;;;;;;;;;5054297;28;20044;-60
2022/08/07 05:02:45;;;;;;;9.50;3.65;;;;;;;;;;5053106;28;20040;-58
2022/08/07 05:05:21;;;;;;;9.40;3.50;;;;;;;;;;5052853;28;20236;-60
2022/08/07 05:07:56;;;;;;;8.20;3.08;;;;;;;;;;5052161;28;20052;-60
2022/08/07 05:10:26;;;;;;;7.07;2.60;;;;;;;;;;5048881;28;20041;-59
2022/08/07 05:13:16;;;;;;;11.75;2.80;;;;;;;;;;5049229;28;20128;-59
2022/08/07 05:15:44;;;;;;;6.55;1.77;;;;;;;;;;5047939;28;20097;-60
2022/08/07 05:18:30;;;;;;;4.80;2.22;;;;;;;;;;5049166;28;20525;-59
2022/08/07 05:20:59;;;;;;;7.30;2.70;;;;;;;;;;5049123;28;20052;-59
2022/08/07 05:23:30;;;;;;;4.43;2.22;;;;;;;;;;5048950;28;20161;-60
2022/08/07 05:25:57;;;;;;;12.75;2.90;;;;;;;;;;5049583;28;20036;-59
2022/08/07 05:28:24;;;;;;;7.47;2.33;;;;;;;;;;5049376;28;20530;-62
2022/08/07 05:30:52;;;;;;;10.13;2.67;;;;;;;;;;5047905;28;20044;-61
2022/08/07 05:33:19;;;;;;;7.90;3.30;;;;;;;;;;5049157;28;20045;-59
2022/08/07 05:35:46;;;;;;;7.45;3.05;;;;;;;;;;5049780;28;20494;-59
2022/08/07 05:38:13;;;;;;;8.55;2.65;;;;;;;;;;5048140;28;20045;-60
2022/08/07 05:40:40;;;;;;;13.63;3.00;;;;;;;;;;5048795;28;20881;-58
2022/08/07 05:43:07;;;;;;;6.68;2.40;;;;;;;;;;5037796;28;20036;-58
2022/08/07 05:45:35;;;;;;;8.30;3.05;;;;;;;;;;5048456;28;20072;-61
2022/08/07 05:48:03;;;;;;;12.05;4.93;;;;;;;;;;5048878;28;20052;-60
2022/08/07 05:50:32;;;;;;;10.70;3.20;;;;;;;;;;5047019;28;20091;-60
2022/08/07 05:52:59;;;;;;;8.45;3.00;;;;;;;;;;5047652;28;20123;-60
2022/08/07 05:55:26;;;;;;;6.90;3.20;;;;;;;;;;5048476;28;20052;-60
2022/08/07 05:57:52;;;;;;;7.97;3.35;;;;;;;;;;5048900;28;20103;-61
2022/08/07 06:00:19;;;;;;;6.30;3.17;;;;;;;;;;5055144;28;20037;-60
2022/08/07 06:02:49;;;;;;;9.57;3.35;;;;;;;;;;5052136;28;20415;-60
2022/08/07 06:05:15;;;;;;;11.15;3.22;;;;;;;;;;5041166;28;20036;-61
2022/08/07 06:07:43;;;;;;;9.10;3.97;;;;;;;;;;5051585;28;20052;-61
2022/08/07 06:10:11;;;;;;;8.23;3.15;;;;;;;;;;5052572;28;20546;-60
2022/08/07 06:12:37;;;;;;;7.57;3.30;;;;;;;;;;5051878;28;20044;-60
2022/08/07 06:15:04;;;;;;;8.50;3.42;;;;;;;;;;5053163;28;20051;-59
2022/08/07 06:17:31;;;;;;;10.45;3.42;;;;;;;;;;5052136;28;20098;-60
2022/08/07 06:19:58;;;;;;;6.05;3.03;;;;;;;;;;5053658;28;20063;-60
2022/08/07 06:22:25;;;;;;;9.77;2.83;;;;;;;;;;5052120;28;20048;-58
2022/08/07 06:24:53;;;;;;;7.35;3.15;;;;;;;;;;5054441;28;20098;-58
2022/08/07 06:27:23;;;;;;;8.57;2.78;;;;;;;;;;5054242;28;20491;-59
2022/08/07 06:29:50;;;;;;;8.48;3.47;;;;;;;;;;5052702;28;20699;-59
2022/08/07 06:32:16;;;;;;;7.43;3.13;;;;;;;;;;5054592;28;20141;-60
2022/08/07 06:34:43;;;;;;;7.05;2.83;;;;;;;;;;5053896;28;20047;-59
2022/08/07 06:37:09;;;;;;;6.10;2.58;;;;;;;;;;5054485;28;20025;-59
2022/08/07 06:39:37;;;;;;;10.13;2.60;;;;;;;;;;5053068;28;20052;-60
2022/08/07 06:42:11;;;;;;;5.70;2.30;;;;;;;;;;5053728;28;20088;-59
2022/08/07 06:44:39;;;;;;;8.65;2.30;;;;;;;;;;5053090;28;20085;-61
2022/08/07 06:47:06;;;;;;;7.35;2.22;;;;;;;;;;5053648;28;20048;-60
2022/08/07 06:49:32;;;;;;;7.72;2.17;;;;;;;;;;5051804;28;20621;-59
2022/08/07 06:51:59;;;;;;;7.22;1.80;;;;;;;;;;5053802;28;20044;-59
2022/08/07 06:54:26;;;;;;;4.13;1.70;;;;;;;;;;5053814;28;20040;-59
2022/08/07 06:56:54;;;;;;;6.22;2.00;;;;;;;;;;5053566;28;20025;-59
2022/08/07 06:59:23;;;;;;;14.38;2.65;;;;;;;;;;5052071;28;20419;-61
2022/08/07 07:01:51;;;;;;;3.80;1.65;;;;;;;;;;5054905;28;20033;-59
2022/08/07 07:04:17;;;;;;;11.23;1.88;;;;;;;;;;5051885;28;20406;-58
2022/08/07 07:06:44;;;;;;;4.97;1.90;;;;;;;;;;5052055;28;20025;-59
2022/08/07 07:09:21;;;;;;;6.25;1.92;;;;;;;;;;5052307;28;20037;-61
2022/08/07 07:11:53;;;;;;;4.97;1.90;;;;;;;;;;5051783;28;20053;-61
2022/08/07 07:14:21;;;;;;;6.50;1.80;;;;;;;;;;5051319;28;20134;-62
2022/08/07 07:16:49;;;;;;;6.88;1.85;;;;;;;;;;5052450;28;20899;-61
2022/08/07 07:19:21;;;;;;;6.70;1.77;;;;;;;;;;5051118;28;20037;-60
2022/08/07 07:21:47;;;;;;;5.38;1.50;;;;;;;;;;5051602;28;20079;-59
2022/08/07 07:24:15;;;;;;;7.13;1.55;;;;;;;;;;5051895;28;20041;-60
2022/08/07 07:26:43;;;;;;;4.95;1.30;;;;;;;;;;5050629;28;20105;-59
2022/08/07 07:29:11;;;;;;;5.57;1.50;;;;;;;;;;5050996;28;20119;-59
2022/08/07 07:31:41;;;;;;;6.55;1.63;;;;;;;;;;5052205;28;20059;-59
2022/08/07 07:34:09;;;;;;;4.15;1.60;;;;;;;;;;5052178;28;20044;-58
2022/08/07 07:36:37;;;;;;;6.35;1.45;;;;;;;;;;5051612;28;20048;-58
2022/08/07 07:39:04;;;;;;;3.70;1.50;;;;;;;;;;5052596;28;20068;-59
2022/08/07 07:41:33;;;;;;;3.63;1.25;;;;;;;;;;5052201;28;20056;-59
2022/08/07 07:44:00;;;;;;;4.07;1.13;;;;;;;;;;5053092;28;20045;-58
2022/08/07 07:46:31;;;;;;;2.92;1.02;;;;;;;;;;5054406;28;20045;-58
2022/08/07 07:48:59;;;;;;;9.85;1.60;;;;;;;;;;5052104;28;20032;-59
2022/08/07 07:51:26;;;;;;;3.20;1.27;;;;;;;;;;5053814;28;20041;-58
2022/08/07 07:53:53;;;;;;;3.63;1.15;;;;;;;;;;5053218;28;20032;-60
2022/08/07 07:56:23;;;;;;;4.80;1.20;;;;;;;;;;5052052;28;20076;-58
2022/08/07 07:58:50;;;;;;;7.38;1.08;;;;;;;;;;5051607;28;20083;-60
2022/08/07 08:01:19;;;;;;;5.70;1.00;;;;;;;;;;5052465;28;20131;-60
2022/08/07 08:03:46;;;;;;;3.33;0.90;;;;;;;;;;5051505;28;20048;-59
2022/08/07 08:06:12;;;;;;;3.80;0.70;;;;;;;;;;5051240;28;20040;-59
2022/08/07 08:08:40;;;;;;;2.08;0.80;;;;;;;;;;5050459;28;20044;-59
2022/08/07 08:11:08;;;;;;;3.15;1.00;;;;;;;;;;5051994;28;20113;-60
2022/08/07 08:13:35;;;;;;;3.30;0.80;;;;;;;;;;5038331;28;20411;-59
2022/08/07 08:16:03;;;;;;;3.95;0.80;;;;;;;;;;5051262;28;20056;-59
2022/08/07 08:18:30;;;;;;;3.28;0.70;;;;;;;;;;5049061;28;20212;-58
2022/08/07 08:21:01;;;;;;;2.25;0.80;;;;;;;;;;5038601;28;20040;-59
2022/08/07 08:29:03;;;;;;;1.52;0.60;;;;;;;;;;5050804;28;20047;-59
2022/08/07 08:31:32;;;;;;;2.65;0.88;;;;;;;;;;5049456;28;20052;-59
2022/08/07 08:34:00;;;;;;;2.30;0.70;;;;;;;;;;5050869;28;20041;-59
2022/08/07 08:36:28;;;;;;;2.78;0.80;;;;;;;;;;5050872;28;20044;-59
2022/08/07 08:38:56;;;;;;;2.88;0.90;;;;;;;;;;5050066;28;20036;-59
2022/08/07 08:41:41;;;;;;;1.90;0.65;;;;;;;;;;5051409;28;20077;-60
2022/08/07 08:44:26;;;;;;;2.15;0.70;;;;;;;;;;5052422;28;20040;-59
2022/08/07 08:47:18;;;;;;;2.95;0.70;;;;;;;;;;5051707;28;20032;-58
2022/08/07 08:49:53;;;;;;;3.30;0.70;;;;;;;;;;5037887;28;20053;-59
2022/08/07 08:52:24;;;;;;;2.80;0.80;;;;;;;;;;5050104;28;20048;-59
2022/08/07 08:55:17;;;;;;;8.32;0.90;;;;;;;;;;5051098;28;20051;-59
2022/08/07 08:57:59;;;;;;;2.45;0.80;;;;;;;;;;5042040;28;20044;-59
2022/08/07 09:00:26;;;;;;;5.53;0.90;;;;;;;;;;5049512;28;20036;-59
2022/08/07 09:03:02;;;;;;;2.00;0.60;;;;;;;;;;5050457;28;20048;-59
2022/08/07 09:05:34;;;;;;;3.13;0.65;;;;;;;;;;5049692;28;20040;-59
2022/08/07 09:08:15;;;;;;;3.45;0.93;;;;;;;;;;5050464;28;20036;-59
2022/08/07 09:10:52;;;;;;;2.78;0.75;;;;;;;;;;5050237;28;20528;-59
2022/08/07 09:13:22;;;;;;;3.38;0.80;;;;;;;;;;5048422;28;20041;-59
2022/08/07 09:16:02;;;;;;;1.95;0.68;;;;;;;;;;5049897;28;20041;-59
2022/08/07 09:18:36;;;;;;;2.90;0.70;;;;;;;;;;5049202;28;20057;-58
2022/08/07 09:21:11;;;;;;;2.90;0.70;;;;;;;;;;5050137;28;20972;-61
2022/08/07 09:23:58;;;;;;;2.55;0.70;;;;;;;;;;5048810;28;20041;-59
2022/08/07 09:26:45;;;;;;;1.83;0.60;;;;;;;;;;4994060;28;20064;-59
2022/08/07 09:29:31;;;;;;;2.42;0.70;;;;;;;;;;5050980;28;20041;-58
2022/08/07 09:32:06;;;;;;;1.77;0.60;;;;;;;;;;5052595;28;20056;-58
2022/08/07 09:34:35;;;;;;;3.92;0.90;;;;;;;;;;5047232;28;20043;-60
2022/08/07 09:37:14;;;;;;;2.47;0.80;;;;;;;;;;5051082;28;20119;-58
2022/08/07 09:39:41;;;;;;;2.50;0.80;;;;;;;;;;5048733;28;20040;-58
2022/08/07 09:42:13;;;;;;;2.10;0.68;;;;;;;;;;5049639;28;20079;-58
2022/08/07 09:44:53;;;;;;;2.00;0.67;;;;;;;;;;5048896;28;20521;-58
2022/08/07 09:47:38;;;;;;;3.97;0.70;;;;;;;;;;5049141;28;20284;-59
2022/08/07 09:50:20;;;;;;;2.75;0.80;;;;;;;;;;5049636;28;20047;-58
2022/08/07 09:52:50;;;;;;;3.60;0.68;;;;;;;;;;5048734;28;20056;-57
2022/08/07 09:55:17;;;;;;;2.78;0.75;;;;;;;;;;5050513;28;20515;-58
2022/08/07 09:57:50;;;;;;;3.85;0.93;;;;;;;;;;5049131;28;20051;-58
2022/08/07 10:00:20;;;;;;;1.83;0.60;;;;;;;;;;5048502;28;20033;-58
2022/08/07 10:02:49;;;;;;;2.05;0.65;;;;;;;;;;5049033;28;20558;-57
2022/08/07 10:05:31;;;;;;;2.45;0.60;;;;;;;;;;5049804;28;20041;-58
2022/08/07 10:08:15;;;;;;;2.45;0.68;;;;;;;;;;5049257;28;20915;-58
2022/08/07 10:10:52;;;;;;;2.13;0.68;;;;;;;;;;5048994;28;20049;-58
2022/08/07 10:13:39;;;;;;;2.75;0.80;;;;;;;;;;5049722;28;20048;-57
2022/08/07 10:16:14;;;;;;;2.03;0.60;;;;;;;;;;5049596;28;20048;-58
2022/08/07 10:18:49;;;;;;;3.17;0.60;;;;;;;;;;5047647;28;20128;-58
2022/08/07 10:21:21;;;;;;;2.33;0.70;;;;;;;;;;5049573;28;20041;-58
2022/08/07 10:24:00;;;;;;;4.80;0.77;;;;;;;;;;5049308;28;20179;-58
2022/08/07 10:26:32;;;;;;;1.80;0.60;;;;;;;;;;5048596;28;20102;-58
2022/08/07 10:28:59;;;;;;;2.28;0.80;;;;;;;;;;5050402;28;20049;-58
2022/08/07 10:31:34;;;;;;;2.03;0.75;;;;;;;;;;5050684;28;20048;-58
2022/08/07 10:34:07;;;;;;;1.67;0.57;;;;;;;;;;5051442;28;20032;-58
2022/08/07 10:36:40;;;;;;;3.17;0.70;;;;;;;;;;5050328;28;20029;-57
2022/08/07 10:39:18;;;;;;;2.08;0.70;;;;;;;;;;5050420;28;20510;-57
2022/08/07 10:41:58;;;;;;;4.40;0.80;;;;;;;;;;5049578;28;20057;-59
2022/08/07 10:44:30;;;;;;;2.70;0.95;;;;;;;;;;5049741;28;20146;-58
2022/08/07 10:47:05;;;;;;;1.83;0.60;;;;;;;;;;5052376;28;20138;-58
2022/08/07 10:49:37;;;;;;;2.67;0.70;;;;;;;;;;5052536;28;20093;-59
2022/08/07 10:52:13;;;;;;;2.88;0.70;;;;;;;;;;5053698;28;20049;-59
2022/08/07 10:54:40;;;;;;;3.20;0.88;;;;;;;;;;5051865;28;20043;-59
2022/08/07 10:57:31;;;;;;;1.88;0.60;;;;;;;;;;5052834;28;20944;-59
2022/08/07 10:59:57;;;;;;;1.88;0.60;;;;;;;;;;5052384;28;22029;-59
2022/08/07 11:02:30;;;;;;;2.60;0.70;;;;;;;;;;5051933;28;20092;-58
2022/08/07 11:05:15;;;;;;;2.75;0.80;;;;;;;;;;5053365;28;20032;-59
2022/08/07 11:07:50;;;;;;;3.40;0.80;;;;;;;;;;5051621;28;20047;-58
2022/08/07 11:10:23;;;;;;;2.13;0.70;;;;;;;;;;5051557;28;20045;-58
2022/08/07 11:13:07;;;;;;;2.80;0.85;;;;;;;;;;5051866;28;20072;-58
2022/08/07 11:15:35;;;;;;;3.85;0.85;;;;;;;;;;5050970;28;20138;-57
2022/08/07 11:18:14;;;;;;;3.13;0.70;;;;;;;;;;5050299;28;20789;-57
2022/08/07 11:21:02;;;;;;;2.83;0.80;;;;;;;;;;5051396;28;20102;-58
2022/08/07 11:23:32;;;;;;;2.70;0.70;;;;;;;;;;5052594;28;20049;-58
2022/08/07 11:26:05;;;;;;;2.55;0.80;;;;;;;;;;5053953;28;20200;-57
2022/08/07 11:28:39;;;;;;;3.38;0.80;;;;;;;;;;5051562;28;20071;-58
2022/08/07 11:31:31;;;;;;;2.45;0.70;;;;;;;;;;5053132;28;20518;-58
2022/08/07 11:34:03;;;;;;;2.57;0.80;;;;;;;;;;5046557;28;20553;-58
2022/08/07 11:36:44;;;;;;;2.60;0.80;;;;;;;;;;5052079;28;20370;-59
2022/08/07 11:39:17;;;;;;;3.88;0.77;;;;;;;;;;5051352;28;20055;-59
2022/08/07 11:41:51;;;;;;;2.50;0.85;;;;;;;;;;5050256;28;20033;-59
2022/08/07 11:44:21;;;;;;;2.42;0.80;;;;;;;;;;5050516;28;20040;-59
2022/08/07 11:47:16;;;;;;;3.05;1.00;;;;;;;;;;5049971;28;20166;-59
2022/08/07 11:49:55;;;;;;;2.78;0.90;;;;;;;;;;5037887;28;20041;-58
2022/08/07 11:52:22;;;;;;;2.88;0.80;;;;;;;;;;5051007;28;20037;-58
2022/08/07 11:54:54;;;;;;;3.53;0.85;;;;;;;;;;5051207;28;20036;-57
2022/08/07 11:57:40;;;;;;;2.55;0.70;;;;;;;;;;5049735;28;21793;-57
2022/08/07 12:00:14;;;;;;;2.47;0.80;;;;;;;;;;5051394;28;20041;-58
2022/08/07 12:06:02;;;;;;;4.80;0.95;;;;;;;;;;5051168;28;20525;-59
2022/08/07 12:08:30;;;;;;;2.90;0.80;;;;;;;;;;5048930;28;20063;-58
2022/08/07 12:11:09;;;;;;;2.10;0.70;;;;;;;;;;5050431;28;20049;-57
2022/08/07 12:13:41;;;;;;;2.65;0.90;;;;;;;;;;5049873;28;20040;-58
2022/08/07 12:16:22;;;;;;;3.50;0.90;;;;;;;;;;5050985;28;20036;-59
2022/08/07 12:18:54;;;;;;;3.08;0.82;;;;;;;;;;5049410;28;20075;-58
2022/08/07 12:21:24;;;;;;;3.10;0.90;;;;;;;;;;5050597;28;20080;-59
2022/08/07 12:24:11;;;;;;;3.50;0.80;;;;;;;;;;5052055;28;20304;-58
2022/08/07 12:26:53;;;;;;;2.80;0.80;;;;;;;;;;5012402;28;20479;-59
2022/08/07 12:29:32;;;;;;;2.38;0.90;;;;;;;;;;5049649;28;20040;-59
2022/08/07 12:32:03;;;;;;;3.85;0.88;;;;;;;;;;5051545;28;20156;-59
2022/08/07 12:34:33;;;;;;;3.70;0.80;;;;;;;;;;5050873;28;20043;-59
2022/08/07 12:37:00;;;;;;;3.70;1.30;;;;;;;;;;5051218;28;20037;-60
2022/08/07 12:39:29;;;;;;;2.70;1.00;;;;;;;;;;5050289;28;20125;-59
2022/08/07 12:41:56;;;;;;;3.20;0.80;;;;;;;;;;5050939;28;20067;-58
2022/08/07 12:44:24;;;;;;;2.30;0.75;;;;;;;;;;5049633;28;20083;-57
2022/08/07 12:47:09;;;;;;;4.25;0.88;;;;;;;;;;5051098;28;22633;-58
2022/08/07 12:49:47;;;;;;;2.03;0.77;;;;;;;;;;5049133;28;20055;-58
2022/08/07 12:52:16;;;;;;;2.50;0.77;;;;;;;;;;5050071;28;20536;-59
2022/08/07 12:55:00;;;;;;;2.45;0.80;;;;;;;;;;5049344;28;20045;-59
2022/08/07 12:57:29;;;;;;;2.50;0.90;;;;;;;;;;5049408;28;20044;-59
2022/08/07 12:59:56;;;;;;;2.40;0.80;;;;;;;;;;5037645;28;20144;-58
2022/08/07 13:02:25;;;;;;;2.35;0.70;;;;;;;;;;5048907;28;20024;-57
2022/08/07 13:05:03;;;;;;;2.97;0.80;;;;;;;;;;5049955;28;20527;-58
2022/08/07 13:07:54;;;;;;;2.35;0.80;;;;;;;;;;5050080;28;20124;-59
2022/08/07 13:10:30;;;;;;;4.43;1.10;;;;;;;;;;5036249;28;20074;-59
2022/08/07 13:13:01;;;;;;;3.70;0.82;;;;;;;;;;5049867;28;20041;-58
2022/08/07 13:15:44;;;;;;;3.35;1.20;;;;;;;;;;5049654;28;20032;-59
2022/08/07 13:18:29;;;;;;;3.78;1.00;;;;;;;;;;5038061;28;20105;-59
2022/08/07 13:21:07;;;;;;;2.47;0.90;;;;;;;;;;5050023;28;20057;-59
2022/08/07 13:23:54;;;;;;;3.85;0.90;;;;;;;;;;5053905;28;20479;-58
2022/08/07 13:26:30;;;;;;;3.15;1.00;;;;;;;;;;5045405;28;20045;-58
2022/08/07 13:29:09;;;;;;;4.82;1.08;;;;;;;;;;5051235;28;20091;-57
2022/08/07 13:31:40;;;;;;;3.17;1.05;;;;;;;;;;5048616;28;20134;-59
2022/08/07 13:34:21;;;;;;;3.15;1.00;;;;;;;;;;5050854;28;20865;-59
2022/08/07 13:36:50;;;;;;;4.32;1.35;;;;;;;;;;5050076;28;20108;-60
2022/08/07 13:39:21;;;;;;;3.25;1.00;;;;;;;;;;5049226;28;20545;-59
2022/08/07 13:41:50;;;;;;;3.22;1.00;;;;;;;;;;5050018;28;20082;-59
2022/08/07 13:44:24;;;;;;;4.75;1.10;;;;;;;;;;5049141;28;20373;-58
2022/08/07 13:46:53;;;;;;;3.28;1.00;;;;;;;;;;5050724;28;20502;-60
2022/08/07 13:49:20;;;;;;;4.15;0.98;;;;;;;;;;5051273;28;20044;-59
2022/08/07 13:51:48;;;;;;;3.17;0.90;;;;;;;;;;5052096;28;20052;-58
2022/08/07 13:54:15;;;;;;;2.63;0.90;;;;;;;;;;5040042;28;20659;-58
2022/08/07 13:56:43;;;;;;;3.47;1.20;;;;;;;;;;5049850;28;20515;-59
2022/08/07 13:59:30;;;;;;;2.88;1.02;;;;;;;;;;5050433;28;20064;-59
2022/08/07 14:02:10;;;;;;;2.88;0.90;;;;;;;;;;5050194;28;20047;-59
2022/08/07 14:04:48;;;;;;;2.90;0.80;;;;;;;;;;5049558;28;20044;-60
2022/08/07 14:07:16;;;;;;;2.40;0.75;;;;;;;;;;5049876;28;20059;-60
2022/08/07 14:09:43;;;;;;;3.25;1.10;;;;;;;;;;5048098;28;20052;-59
2022/08/07 14:12:13;;;;;;;2.40;0.88;;;;;;;;;;5050347;28;20044;-59
2022/08/07 14:14:42;;;;;;;3.95;1.05;;;;;;;;;;5049390;28;20100;-60
2022/08/07 14:17:11;;;;;;;4.68;1.10;;;;;;;;;;5050377;28;20418;-60
2022/08/07 14:19:46;;;;;;;2.55;0.82;;;;;;;;;;5048388;28;20126;-60
2022/08/07 14:22:19;;;;;;;2.70;1.00;;;;;;;;;;5053491;28;20031;-59
2022/08/07 14:24:48;;;;;;;2.17;0.70;;;;;;;;;;5052783;28;20037;-59
2022/08/07 14:27:17;;;;;;;3.30;1.00;;;;;;;;;;5053318;28;20431;-60
2022/08/07 14:29:48;;;;;;;3.72;1.08;;;;;;;;;;5051526;28;20048;-60
2022/08/07 14:32:15;;;;;;;4.18;1.00;;;;;;;;;;5053547;28;20079;-60
2022/08/07 14:34:44;;;;;;;3.10;1.20;;;;;;;;;;5052149;28;20376;-60
2022/08/07 14:37:11;;;;;;;3.10;1.00;;;;;;;;;;5052326;28;20126;-59
2022/08/07 14:39:40;;;;;;;2.13;0.80;;;;;;;;;;5036115;28;20214;-59
2022/08/07 14:42:10;;;;;;;3.70;1.00;;;;;;;;;;5056696;28;20131;-60
2022/08/07 14:44:38;;;;;;;3.75;0.80;;;;;;;;;;5051931;28;20041;-60
2022/08/07 14:47:06;;;;;;;3.10;0.90;;;;;;;;;;5053638;28;20040;-59
2022/08/07 14:49:34;;;;;;;2.25;0.77;;;;;;;;;;5051137;28;20102;-60
2022/08/07 14:52:02;;;;;;;3.30;0.90;;;;;;;;;;5053358;28;20552;-59
2022/08/07 14:54:30;;;;;;;2.55;0.80;;;;;;;;;;5052124;28;20044;-60
2022/08/07 14:56:57;;;;;;;2.05;0.77;;;;;;;;;;5050672;28;20410;-59
2022/08/07 14:59:25;;;;;;;2.30;0.70;;;;;;;;;;5051124;28;20033;-59
2022/08/07 15:01:53;;;;;;;3.15;0.90;;;;;;;;;;5052452;28;20033;-60
2022/08/07 15:04:21;;;;;;;2.38;0.80;;;;;;;;;;5051330;28;20048;-60
2022/08/07 15:06:49;;;;;;;2.55;0.80;;;;;;;;;;5051942;28;20036;-60
2022/08/07 15:09:17;;;;;;;3.03;0.70;;;;;;;;;;5051254;28;20788;-60
2022/08/07 15:12:14;;;;;;;1.73;0.60;;;;;;;;;;5038950;28;20063;-59
2022/08/07 15:14:54;;;;;;;2.13;0.70;;;;;;;;;;5036597;28;20068;-59